Airfield :
LOGIN :

Register | Disclaimer

   EN    FR    IT 

 










Legend :    VFR   Marginal VFR   IFR   Intensive IFR   Very Intensive IFR
Visi :
Ceiling :
>= 8 km
>= 3000ft
5 to 8 km
1000 to 3000 ft
1500m to 5 km
500 to 1000 ft
800 to 1500m
200 to 500 ft
< 800m
< 200 ft
Symbols :   Thunderstorms  Fog  Heavy snow  Heavy precipitations  Wind > 20 kt
SIGMETs :     Misc.  Thunderstorms  Icing  Turbulence  Mountain Waves  Volcanic Ashes






- Airport Elevation : 425 ft
- IATA code : DTM


EDLW - Dortmund

CURRENT METAR :
  • 250750Z 15004KT 100V250 9999 OVC011 02/01 Q1033

EXPIRED METARs :
  • 250720Z 17004KT 9999 OVC011 02/01 Q1033
  • 250650Z 19003KT 9999 OVC011 02/01 Q1033
  • 250620Z 18003KT 9999 OVC011 02/01 Q1033
  • 250550Z 18003KT 140V220 9999 OVC010 02/01 Q1033
  • 250520Z 13003KT 100V170 9999 OVC010 02/01 Q1033

TAF TAF EDLW
Valid from the 25 at 06:00 until the 26 at 06:00 UTC


250500Z 2506/2606 VRB03KT 9999 BKN010
PROB30
TEMPO 2512/2521 BKN015
PROB30
TEMPO 2602/2606 3000 BR BKN004



MET'MAP, your aeronautical weather chart ! - Copyright ORBIFLY December 2007 - Disclaimer

ORBIFLY MET'MAP TEAM :

Programming & Development : Alexandra Zaïnal
Original concept : Baudouin d'Aumeries
Technical & hardware support : Manuel Goepfert
Assistance : Marc-Olivier Méhu

Contact : metmap@orbifly.com




SOURCES & CREDITS :

   NOAA